PROFILE

 METAR AND TAF INFORMATION
ADDS - METARS form results

(1531 UTC 20 June 2019)
http://aviationweather.gov/metar/data/
 
TAF LFKB 201400Z 2015/2115 11010KT 9999 FEW030 TX27/2111Z TN18/2103Z BECMG 2019/2021 24004KT TEMPO 2021/2106 BKN006 BECMG 2107/2109 12010KT 

 AIRPORT MAP

 RUNWAY INFORMATION
Runway 16 Runway length 8266 ft Runway width 148 ft
Runway elevation 13 ft Runway displaced threshold 0 ft Runway heading 163
Runway 34 Runway length 8266 ft Runway width 148 ft
Runway elevation 26 ft Runway displaced threshold 0 ft Runway heading 343

 AIRPORT FREQUENCIES
Type AFIS Name BASTIA INF Frequency 124.725 MHZ
Type APP Name BASTIA RAD Frequency 123.825 MHZ
Type ARR Name BASTIA APP Frequency 37.85 MHZ
Type ATIS Name BASTIA ATI Frequency 125.925 MHZ
Type GND Name GND Frequency 121.825 MHZ
Type TWR Name BASTIA TWR Frequency 118 MHZ

 AIRPORT NEAR NAVIGATION AIDS
Type VOR-DME Name Bastia Frequency 114150 KHZ